createdAt,value
2023-05-21T00:02:05.049Z,14.30
2023-05-21T00:04:33.868Z,14.30
2023-05-21T00:07:00.960Z,14.40
2023-05-21T00:09:27.985Z,14.30
2023-05-21T00:11:55.027Z,14.40
2023-05-21T00:14:22.039Z,14.40
2023-05-21T00:16:49.136Z,14.50
2023-05-21T00:19:16.426Z,14.50
2023-05-21T00:21:46.018Z,14.50
2023-05-21T00:24:13.086Z,14.50
2023-05-21T00:26:40.161Z,14.40
2023-05-21T00:29:07.097Z,14.30
2023-05-21T00:31:34.218Z,14.20
2023-05-21T00:34:01.186Z,14.20
2023-05-21T00:36:28.240Z,14.20
2023-05-21T00:38:55.178Z,14.10
2023-05-21T00:41:23.324Z,14.10
2023-05-21T00:43:50.301Z,14.10
2023-05-21T00:46:21.018Z,14.20
2023-05-21T00:48:50.559Z,14.20
2023-05-21T00:51:18.778Z,14.20
2023-05-21T00:53:46.850Z,14.20
2023-05-21T00:56:14.152Z,14.10
2023-05-21T00:58:41.791Z,14.00
2023-05-21T01:01:13.999Z,14.00
2023-05-21T01:03:41.460Z,13.90
2023-05-21T01:06:09.851Z,13.80
2023-05-21T01:08:37.765Z,13.70
2023-05-21T01:11:06.462Z,13.70
2023-05-21T01:13:36.844Z,13.70
2023-05-21T01:16:06.704Z,13.60
2023-05-21T01:18:38.149Z,13.60
2023-05-21T01:21:07.420Z,13.70
2023-05-21T01:23:34.685Z,13.70
2023-05-21T01:26:01.696Z,13.70
2023-05-21T01:28:29.909Z,13.70
2023-05-21T01:31:05.278Z,13.60
2023-05-21T01:33:47.172Z,13.70
2023-05-21T01:36:26.857Z,13.60
2023-05-21T01:39:22.902Z,13.50
2023-05-21T01:41:53.112Z,13.60
2023-05-21T01:44:21.003Z,13.50
2023-05-21T01:46:49.665Z,13.60
2023-05-21T01:49:18.027Z,13.60
2023-05-21T01:51:45.381Z,13.60
2023-05-21T01:54:12.577Z,13.60
2023-05-21T01:56:39.650Z,13.60
2023-05-21T01:59:06.750Z,13.60
2023-05-21T02:01:33.761Z,13.60
2023-05-21T02:04:00.968Z,13.60
2023-05-21T02:06:28.102Z,13.60
2023-05-21T02:08:55.723Z,13.60
2023-05-21T02:11:23.358Z,13.60
2023-05-21T02:13:50.406Z,13.70
2023-05-21T02:16:17.434Z,13.70
2023-05-21T02:18:44.469Z,13.70
2023-05-21T02:21:11.540Z,13.70
2023-05-21T02:23:38.811Z,13.70
2023-05-21T02:26:05.796Z,13.70
2023-05-21T02:28:32.889Z,13.70
2023-05-21T02:31:00.578Z,13.70
2023-05-21T02:33:27.686Z,13.60
2023-05-21T02:35:54.599Z,13.60
2023-05-21T02:38:23.274Z,13.60
2023-05-21T02:40:51.210Z,13.50
2023-05-21T02:43:18.356Z,13.50
2023-05-21T02:45:46.045Z,13.60
2023-05-21T02:48:13.181Z,13.60
2023-05-21T02:50:40.320Z,13.60
2023-05-21T02:53:07.330Z,13.60
2023-05-21T02:55:34.475Z,13.70
2023-05-21T02:58:01.555Z,13.60
2023-05-21T03:00:28.551Z,13.60
2023-05-21T03:02:55.872Z,13.50
2023-05-21T03:05:22.958Z,13.50
2023-05-21T03:07:50.146Z,13.40
2023-05-21T03:10:17.260Z,13.40
2023-05-21T03:12:44.268Z,13.30
2023-05-21T03:15:11.574Z,13.30
2023-05-21T03:17:38.919Z,13.20
2023-05-21T03:20:08.832Z,13.20
2023-05-21T03:22:37.628Z,13.20
2023-05-21T03:25:04.865Z,13.20
2023-05-21T03:27:32.167Z,13.20
2023-05-21T03:29:59.386Z,13.20
2023-05-21T03:32:26.636Z,13.20
2023-05-21T03:34:53.614Z,13.20
2023-05-21T03:37:20.634Z,13.10
2023-05-21T03:39:47.727Z,13.10
2023-05-21T03:42:14.786Z,13.10
2023-05-21T03:44:41.719Z,13.10
2023-05-21T03:47:08.692Z,13.00
2023-05-21T03:49:35.824Z,13.00
2023-05-21T03:52:02.985Z,13.00
2023-05-21T03:54:29.970Z,13.00
2023-05-21T03:56:56.949Z,12.90
2023-05-21T03:59:23.957Z,12.90
2023-05-21T04:01:51.110Z,12.90
2023-05-21T04:04:18.123Z,12.90
2023-05-21T04:06:45.053Z,12.90
2023-05-21T04:09:12.463Z,12.90
2023-05-21T04:11:39.504Z,12.90
2023-05-21T04:14:06.651Z,12.90
2023-05-21T04:16:35.490Z,12.80
2023-05-21T04:19:02.666Z,12.80
2023-05-21T04:21:29.641Z,12.70
2023-05-21T04:23:57.636Z,12.70
2023-05-21T04:26:25.290Z,12.60
2023-05-21T04:28:54.052Z,12.60
2023-05-21T04:31:22.040Z,12.50
2023-05-21T04:33:49.045Z,12.50
2023-05-21T04:36:17.374Z,12.40
2023-05-21T04:38:44.402Z,12.40
2023-05-21T04:41:11.343Z,12.40
2023-05-21T04:43:38.666Z,12.40
2023-05-21T04:46:06.083Z,12.40
2023-05-21T04:48:33.061Z,12.40
2023-05-21T04:51:00.138Z,12.40
2023-05-21T04:53:27.078Z,12.40
2023-05-21T04:55:54.063Z,12.50
2023-05-21T04:58:21.179Z,12.50
2023-05-21T05:00:51.649Z,12.50
2023-05-21T05:03:18.827Z,12.60
2023-05-21T05:05:46.227Z,12.60
2023-05-21T05:08:15.500Z,12.60
2023-05-21T05:10:43.105Z,12.70
2023-05-21T05:13:10.114Z,12.70
2023-05-21T05:15:37.313Z,12.80
2023-05-21T05:18:04.614Z,12.90
2023-05-21T05:20:31.660Z,12.90
2023-05-21T05:22:58.681Z,13.00
2023-05-21T05:25:26.838Z,13.00
2023-05-21T05:27:53.938Z,13.00
2023-05-21T05:30:21.176Z,13.10
2023-05-21T05:32:48.133Z,13.10
2023-05-21T05:35:15.235Z,13.10
2023-05-21T05:37:42.325Z,13.20
2023-05-21T05:40:09.628Z,13.20
2023-05-21T05:42:36.656Z,13.20
2023-05-21T05:45:03.872Z,13.20
2023-05-21T05:47:31.468Z,13.30
2023-05-21T05:49:58.530Z,13.30
2023-05-21T05:52:25.514Z,13.30
2023-05-21T05:54:52.478Z,13.30
2023-05-21T05:57:19.626Z,13.40
2023-05-21T05:59:46.568Z,13.50
2023-05-21T06:02:13.606Z,13.50
2023-05-21T06:04:40.698Z,13.60
2023-05-21T06:07:07.772Z,13.60
2023-05-21T06:09:34.831Z,13.70
2023-05-21T06:12:02.169Z,13.70
2023-05-21T06:14:29.343Z,13.70
2023-05-21T06:16:56.636Z,13.70
2023-05-21T06:19:24.272Z,13.70
2023-05-21T06:21:51.183Z,13.70
2023-05-21T06:24:18.251Z,13.70
2023-05-21T06:26:45.355Z,13.70
2023-05-21T06:29:14.795Z,13.70
2023-05-21T06:31:42.659Z,13.80
2023-05-21T06:34:10.720Z,13.90
2023-05-21T06:36:37.994Z,14.00
2023-05-21T06:39:04.929Z,14.00
2023-05-21T06:41:31.946Z,14.00
2023-05-21T06:43:58.924Z,14.00
2023-05-21T06:46:26.020Z,14.10
2023-05-21T06:48:53.106Z,14.10
2023-05-21T06:51:20.116Z,14.10
2023-05-21T06:53:47.180Z,14.20
2023-05-21T06:56:14.192Z,14.10
2023-05-21T06:58:41.274Z,14.20
2023-05-21T07:01:08.326Z,14.30
2023-05-21T07:03:36.649Z,14.30
2023-05-21T07:06:03.929Z,14.30
2023-05-21T07:08:30.803Z,14.40
2023-05-21T07:10:57.939Z,14.40
2023-05-21T07:13:24.997Z,14.50
2023-05-21T07:15:52.000Z,14.80
2023-05-21T07:18:19.559Z,14.90
2023-05-21T07:20:46.536Z,15.00
2023-05-21T07:23:13.526Z,15.10
2023-05-21T07:25:40.586Z,15.20
2023-05-21T07:28:07.592Z,15.30
2023-05-21T07:30:34.565Z,15.40
2023-05-21T07:33:01.532Z,15.30
2023-05-21T07:35:29.110Z,15.30
2023-05-21T07:37:56.158Z,15.40
2023-05-21T07:40:23.135Z,15.40
2023-05-21T07:42:50.643Z,15.40
2023-05-21T07:45:17.581Z,15.50
2023-05-21T07:47:46.861Z,15.60
2023-05-21T07:50:14.858Z,15.90
2023-05-21T07:52:42.178Z,16.20
2023-05-21T07:55:10.352Z,16.30
2023-05-21T07:57:37.468Z,16.30
2023-05-21T08:00:08.396Z,16.40
2023-05-21T08:02:35.942Z,16.50
2023-05-21T08:05:03.153Z,16.50
2023-05-21T08:07:31.900Z,16.60
2023-05-21T08:09:59.270Z,16.80
2023-05-21T08:12:26.275Z,17.00
2023-05-21T08:14:53.209Z,17.20
2023-05-21T08:17:20.137Z,17.40
2023-05-21T08:19:47.313Z,17.60
2023-05-21T08:22:14.361Z,17.80
2023-05-21T08:24:46.402Z,18.00
2023-05-21T08:27:15.222Z,18.00
2023-05-21T08:29:42.808Z,18.00
2023-05-21T08:32:10.492Z,18.00
2023-05-21T08:34:37.477Z,18.10
2023-05-21T08:37:04.806Z,18.20
2023-05-21T08:39:31.850Z,18.20
2023-05-21T08:42:09.883Z,18.30
2023-05-21T08:44:42.112Z,18.50
2023-05-21T08:47:12.232Z,18.60
2023-05-21T08:49:39.380Z,18.80
2023-05-21T08:52:06.985Z,18.70
2023-05-21T08:54:34.344Z,18.60
2023-05-21T08:57:02.638Z,18.60
2023-05-21T08:59:29.646Z,18.70
2023-05-21T09:01:58.367Z,18.90
2023-05-21T09:04:26.316Z,19.00
2023-05-21T09:06:55.266Z,19.10
2023-05-21T09:09:57.562Z,19.30
2023-05-21T09:12:25.589Z,19.40
2023-05-21T09:14:53.100Z,19.50
2023-05-21T09:17:20.540Z,19.70
2023-05-21T09:20:12.621Z,19.90
2023-05-21T09:22:47.701Z,19.90
2023-05-21T09:25:23.739Z,19.90
2023-05-21T09:27:51.314Z,20.00
2023-05-21T09:30:21.902Z,20.00
2023-05-21T09:32:57.727Z,20.10
2023-05-21T09:35:25.085Z,20.20
2023-05-21T09:37:53.282Z,20.30
2023-05-21T09:40:21.346Z,20.40
2023-05-21T09:42:49.404Z,20.40
2023-05-21T09:45:20.467Z,20.30
2023-05-21T09:47:49.398Z,20.20
2023-05-21T09:50:21.945Z,20.30
2023-05-21T09:52:51.145Z,20.50
2023-05-21T09:55:18.628Z,20.50
2023-05-21T09:57:49.104Z,20.60
2023-05-21T10:00:27.440Z,20.80
2023-05-21T10:02:56.223Z,21.00
2023-05-21T10:05:30.059Z,21.10
2023-05-21T10:08:04.383Z,21.00
2023-05-21T10:10:32.675Z,21.00
2023-05-21T10:13:07.064Z,21.10
2023-05-21T10:15:40.782Z,21.30
2023-05-21T10:18:10.138Z,21.30
2023-05-21T10:20:38.503Z,21.30
2023-05-21T10:23:06.075Z,21.40
2023-05-21T10:25:33.426Z,21.40
2023-05-21T10:28:00.910Z,21.40
2023-05-21T10:30:28.459Z,21.30
2023-05-21T10:32:57.271Z,21.20
2023-05-21T10:35:24.880Z,21.20
2023-05-21T10:37:54.192Z,21.20
2023-05-21T10:40:21.288Z,21.10
2023-05-21T10:43:18.252Z,21.00
2023-05-21T10:46:00.214Z,21.10
2023-05-21T10:49:01.004Z,21.10
2023-05-21T10:51:49.901Z,21.10
2023-05-21T10:54:42.284Z,21.10
2023-05-21T10:57:40.279Z,21.20
2023-05-21T11:00:09.652Z,21.20
2023-05-21T11:02:37.297Z,21.20
2023-05-21T11:05:04.651Z,21.30
2023-05-21T11:07:57.265Z,21.60
2023-05-21T11:10:40.865Z,21.80
2023-05-21T11:13:12.451Z,22.00
2023-05-21T11:15:58.049Z,22.00
2023-05-21T11:18:34.160Z,22.10
2023-05-21T11:21:22.458Z,22.20
2023-05-21T11:23:52.765Z,22.40
2023-05-21T11:26:28.871Z,22.40
2023-05-21T11:29:05.334Z,22.50
2023-05-21T11:31:40.163Z,22.50
2023-05-21T11:34:28.772Z,22.60
2023-05-21T11:37:20.786Z,22.70
2023-05-21T11:39:49.698Z,22.90
2023-05-21T11:42:31.032Z,23.00
2023-05-21T11:44:59.292Z,23.20
2023-05-21T11:47:28.478Z,23.40
2023-05-21T11:49:57.744Z,23.40
2023-05-21T11:52:25.514Z,23.40
2023-05-21T11:54:55.741Z,23.30
2023-05-21T11:57:30.614Z,23.40
2023-05-21T11:59:59.180Z,23.70
2023-05-21T12:02:33.012Z,23.80
2023-05-21T12:05:00.614Z,23.90
2023-05-21T12:07:29.857Z,23.80
2023-05-21T12:09:57.278Z,23.70
2023-05-21T12:12:35.561Z,23.80
2023-05-21T12:15:07.002Z,23.80
2023-05-21T12:17:34.527Z,23.70
2023-05-21T12:20:02.168Z,23.40
2023-05-21T12:22:29.915Z,23.40
2023-05-21T12:24:58.336Z,23.30
2023-05-21T12:27:25.736Z,23.40
2023-05-21T12:29:53.577Z,23.50
2023-05-21T12:32:21.713Z,23.40
2023-05-21T12:34:54.710Z,23.40
2023-05-21T12:37:23.865Z,23.60
2023-05-21T12:39:52.200Z,23.80
2023-05-21T12:42:35.641Z,23.90
2023-05-21T12:45:12.006Z,23.90
2023-05-21T12:47:39.237Z,23.90
2023-05-21T12:50:12.397Z,24.00
2023-05-21T12:52:41.013Z,23.90
2023-05-21T12:55:10.475Z,23.70
2023-05-21T12:57:39.108Z,23.50
2023-05-21T13:00:07.631Z,23.30
2023-05-21T13:02:40.021Z,23.10
2023-05-21T13:05:09.158Z,22.90
2023-05-21T13:07:38.227Z,22.90
2023-05-21T13:10:06.210Z,22.80
2023-05-21T13:12:34.347Z,22.60
2023-05-21T13:15:03.625Z,22.40
2023-05-21T13:17:30.990Z,22.40
2023-05-21T13:20:21.230Z,22.50
2023-05-21T13:22:52.469Z,22.50
2023-05-21T13:25:25.142Z,22.50
2023-05-21T13:27:53.764Z,22.40
2023-05-21T13:30:22.379Z,22.50
2023-05-21T13:32:49.751Z,22.30
2023-05-21T13:35:17.490Z,22.00
2023-05-21T13:37:47.491Z,22.00
2023-05-21T13:40:16.351Z,22.10
2023-05-21T13:42:46.696Z,22.00
2023-05-21T13:45:16.550Z,22.00
2023-05-21T13:47:44.859Z,21.90
2023-05-21T13:50:12.504Z,21.90
2023-05-21T13:52:39.930Z,22.00
2023-05-21T13:55:07.757Z,22.10
2023-05-21T13:57:34.921Z,22.30
2023-05-21T14:00:02.548Z,22.30
2023-05-21T14:02:30.038Z,22.30
2023-05-21T14:04:57.749Z,22.40
2023-05-21T14:07:24.851Z,22.40
2023-05-21T14:09:52.400Z,22.50
2023-05-21T14:12:19.516Z,22.60
2023-05-21T14:14:49.656Z,22.60
2023-05-21T14:17:16.660Z,22.60
2023-05-21T14:19:43.843Z,22.40
2023-05-21T14:22:11.376Z,22.30
2023-05-21T14:24:38.250Z,22.30
2023-05-21T14:27:05.462Z,22.40
2023-05-21T14:29:33.550Z,22.30
2023-05-21T14:32:00.692Z,22.40
2023-05-21T14:34:27.702Z,22.40
2023-05-21T14:36:54.929Z,22.40
2023-05-21T14:39:22.345Z,22.40
2023-05-21T14:41:52.667Z,22.40
2023-05-21T14:44:20.089Z,22.40
2023-05-21T14:46:47.381Z,22.40
2023-05-21T14:49:14.676Z,22.40
2023-05-21T14:51:43.662Z,22.50
2023-05-21T14:54:10.948Z,22.60
2023-05-21T14:56:38.146Z,22.60
2023-05-21T14:59:05.602Z,22.60
2023-05-21T15:01:32.675Z,22.60
2023-05-21T15:04:00.010Z,22.50
2023-05-21T15:06:28.250Z,22.40
2023-05-21T15:08:55.429Z,22.40
2023-05-21T15:11:23.492Z,22.30
2023-05-21T15:13:50.731Z,22.30
2023-05-21T15:16:19.596Z,22.20
2023-05-21T15:18:47.273Z,22.20
2023-05-21T15:21:14.691Z,22.20
2023-05-21T15:23:42.793Z,22.10
2023-05-21T15:26:10.111Z,21.90
2023-05-21T15:28:37.330Z,21.90
2023-05-21T15:31:04.335Z,21.70
2023-05-21T15:33:31.813Z,21.40
2023-05-21T15:35:58.844Z,21.00
2023-05-21T15:38:25.974Z,20.90
2023-05-21T15:40:53.022Z,20.90
2023-05-21T15:43:20.102Z,20.90
2023-05-21T15:45:47.300Z,20.90
2023-05-21T15:48:14.843Z,20.70
2023-05-21T15:50:42.370Z,20.70
2023-05-21T15:53:11.274Z,20.70
2023-05-21T15:55:38.556Z,20.70
2023-05-21T15:58:06.142Z,20.60
2023-05-21T16:00:34.266Z,20.50
2023-05-21T16:03:01.477Z,20.60
2023-05-21T16:05:28.714Z,20.60
2023-05-21T16:07:55.719Z,20.70
2023-05-21T16:10:22.942Z,20.70
2023-05-21T16:12:49.928Z,20.60
2023-05-21T16:15:17.005Z,20.60
2023-05-21T16:17:44.124Z,20.60
2023-05-21T16:20:11.858Z,20.60
2023-05-21T16:22:38.956Z,20.60
2023-05-21T16:25:06.395Z,20.50
2023-05-21T16:27:33.662Z,20.50
2023-05-21T16:30:01.264Z,20.50
2023-05-21T16:32:28.991Z,20.50
2023-05-21T16:34:56.572Z,20.50
2023-05-21T16:37:23.773Z,20.60
2023-05-21T16:39:50.717Z,20.70
2023-05-21T16:42:17.862Z,20.70
2023-05-21T16:44:44.869Z,20.70
2023-05-21T16:47:12.001Z,20.70
2023-05-21T16:49:39.081Z,20.60
2023-05-21T16:52:06.473Z,20.40
2023-05-21T16:54:33.847Z,20.20
2023-05-21T16:57:01.065Z,20.10
2023-05-21T16:59:28.512Z,19.90
2023-05-21T17:01:55.613Z,19.80
2023-05-21T17:04:22.551Z,19.60
2023-05-21T17:06:49.600Z,19.50
2023-05-21T17:09:18.123Z,18.10
2023-05-21T17:11:45.768Z,19.30
2023-05-21T17:14:15.392Z,19.20
2023-05-21T17:16:50.778Z,19.20
2023-05-21T17:19:17.822Z,21.00
2023-05-21T17:21:44.939Z,19.20
2023-05-21T17:24:12.094Z,19.20
2023-05-21T17:26:39.395Z,19.30
2023-05-21T17:29:06.636Z,19.30
2023-05-21T17:31:34.102Z,19.30
2023-05-21T17:34:01.255Z,19.30
2023-05-21T17:36:28.717Z,19.30
2023-05-21T17:38:55.812Z,19.40
2023-05-21T17:41:25.447Z,19.50
2023-05-21T17:43:52.461Z,19.50
2023-05-21T17:46:19.751Z,19.50
2023-05-21T17:48:47.077Z,19.60
2023-05-21T17:51:14.386Z,19.70
2023-05-21T17:53:41.539Z,19.70
2023-05-21T17:56:10.537Z,19.60
2023-05-21T17:58:37.646Z,19.70
2023-05-21T18:01:04.917Z,19.70
2023-05-21T18:03:32.288Z,19.60
2023-05-21T18:05:59.577Z,19.60
2023-05-21T18:08:27.023Z,19.50
2023-05-21T18:10:54.117Z,19.50
2023-05-21T18:13:21.376Z,19.40
2023-05-21T18:15:48.445Z,19.30
2023-05-21T18:18:20.601Z,19.30
2023-05-21T18:20:49.142Z,19.20
2023-05-21T18:23:16.759Z,19.10
2023-05-21T18:25:43.956Z,19.00
2023-05-21T18:28:11.096Z,18.90
2023-05-21T18:30:38.482Z,18.80
2023-05-21T18:33:06.039Z,18.70
2023-05-21T18:35:33.154Z,18.70
2023-05-21T18:38:00.162Z,20.10
2023-05-21T18:40:30.587Z,18.50
2023-05-21T18:42:57.867Z,18.50
2023-05-21T18:45:24.893Z,18.50
2023-05-21T18:47:52.051Z,18.40
2023-05-21T18:50:19.576Z,18.40
2023-05-21T18:52:47.007Z,18.30
2023-05-21T18:55:14.706Z,18.20
2023-05-21T18:57:41.714Z,18.10
2023-05-21T19:00:09.689Z,18.00
2023-05-21T19:02:37.415Z,17.90
2023-05-21T19:05:04.804Z,17.70
2023-05-21T19:07:31.945Z,17.60
2023-05-21T19:10:00.436Z,17.50
2023-05-21T19:12:29.308Z,17.50
2023-05-21T19:14:56.355Z,17.50
2023-05-21T19:17:23.761Z,17.50
2023-05-21T19:19:55.821Z,17.50
2023-05-21T19:22:27.086Z,17.50
2023-05-21T19:24:54.901Z,17.50
2023-05-21T19:27:22.044Z,17.40
2023-05-21T19:29:49.348Z,17.30
2023-05-21T19:32:16.537Z,17.20
2023-05-21T19:34:43.471Z,17.20
2023-05-21T19:37:10.797Z,17.10
2023-05-21T19:39:41.281Z,17.10
2023-05-21T19:42:09.448Z,17.00
2023-05-21T19:44:42.642Z,17.00
2023-05-21T19:47:09.629Z,17.00
2023-05-21T19:49:36.802Z,16.80
2023-05-21T19:52:04.452Z,16.70
2023-05-21T19:54:31.730Z,16.70
2023-05-21T19:56:58.898Z,16.60
2023-05-21T19:59:26.356Z,16.50
2023-05-21T20:01:53.530Z,16.60
2023-05-21T20:04:20.598Z,16.50
2023-05-21T20:06:47.930Z,16.50
2023-05-21T20:09:16.384Z,16.50
2023-05-21T20:11:43.638Z,16.40
2023-05-21T20:14:11.058Z,16.40
2023-05-21T20:16:38.177Z,16.40
2023-05-21T20:19:05.900Z,16.30
2023-05-21T20:21:33.093Z,16.30
2023-05-21T20:24:00.221Z,16.30
2023-05-21T20:26:27.273Z,16.40
2023-05-21T20:28:54.204Z,16.40
2023-05-21T20:31:21.710Z,16.40
2023-05-21T20:33:50.673Z,16.30
2023-05-21T20:36:17.860Z,16.30
2023-05-21T20:38:45.765Z,16.30
2023-05-21T20:41:13.564Z,16.30
2023-05-21T20:43:40.718Z,16.30
2023-05-21T20:46:07.971Z,16.20
2023-05-21T20:48:35.455Z,16.20
2023-05-21T20:51:04.722Z,16.10
2023-05-21T20:53:32.066Z,16.10
2023-05-21T20:56:01.637Z,16.10
2023-05-21T20:58:28.841Z,16.10
2023-05-21T21:00:55.848Z,16.00
2023-05-21T21:03:22.935Z,16.00
2023-05-21T21:05:50.243Z,15.90
2023-05-21T21:08:17.230Z,15.80
2023-05-21T21:10:47.051Z,15.90
2023-05-21T21:13:14.597Z,15.90
2023-05-21T21:15:43.772Z,15.90
2023-05-21T21:18:12.517Z,15.90
2023-05-21T21:20:41.352Z,15.90
2023-05-21T21:23:08.735Z,15.80
2023-05-21T21:25:36.223Z,15.80
2023-05-21T21:28:03.369Z,15.80
2023-05-21T21:30:30.919Z,15.80
2023-05-21T21:32:58.005Z,15.70
2023-05-21T21:35:25.154Z,15.60
2023-05-21T21:37:52.125Z,15.60
2023-05-21T21:40:19.066Z,15.50
2023-05-21T21:42:46.433Z,15.50
2023-05-21T21:45:13.422Z,15.40
2023-05-21T21:47:40.481Z,15.40
2023-05-21T21:50:08.138Z,15.40
2023-05-21T21:52:40.211Z,15.40
2023-05-21T21:55:11.314Z,15.50
2023-05-21T21:57:39.207Z,15.40
2023-05-21T22:00:20.968Z,15.40
2023-05-21T22:02:48.145Z,15.30
2023-05-21T22:05:16.491Z,15.30
2023-05-21T22:07:47.708Z,15.30
2023-05-21T22:10:16.219Z,15.30
2023-05-21T22:12:44.037Z,15.20
2023-05-21T22:15:28.812Z,15.30
2023-05-21T22:17:56.018Z,15.20
2023-05-21T22:20:23.401Z,15.10
2023-05-21T22:22:50.492Z,15.20
2023-05-21T22:25:17.708Z,15.10
2023-05-21T22:27:44.624Z,15.10
2023-05-21T22:30:11.967Z,15.20
2023-05-21T22:32:39.237Z,15.10
2023-05-21T22:35:06.820Z,15.10
2023-05-21T22:37:34.084Z,15.10
2023-05-21T22:40:01.233Z,15.10
2023-05-21T22:42:28.246Z,15.10
2023-05-21T22:44:55.151Z,15.20
2023-05-21T22:47:23.815Z,15.20
2023-05-21T22:49:53.291Z,15.20
2023-05-21T22:52:24.022Z,15.20
2023-05-21T22:54:52.587Z,15.20
2023-05-21T22:57:19.720Z,15.10
2023-05-21T22:59:46.780Z,15.00
2023-05-21T23:02:15.146Z,14.80
2023-05-21T23:04:44.343Z,14.70
2023-05-21T23:07:12.113Z,14.70
2023-05-21T23:09:39.120Z,14.70
2023-05-21T23:12:06.735Z,14.70
2023-05-21T23:14:33.872Z,14.80
2023-05-21T23:17:02.227Z,14.90
2023-05-21T23:19:29.940Z,15.00
2023-05-21T23:21:57.254Z,15.20
2023-05-21T23:24:24.321Z,15.20
2023-05-21T23:26:51.287Z,15.30
2023-05-21T23:29:19.030Z,15.40
2023-05-21T23:31:46.981Z,15.40
2023-05-21T23:34:14.632Z,15.40
2023-05-21T23:36:41.628Z,15.50
2023-05-21T23:39:09.363Z,15.50
2023-05-21T23:41:36.408Z,15.50
2023-05-21T23:44:03.736Z,15.40
2023-05-21T23:46:30.835Z,15.30
2023-05-21T23:48:57.797Z,15.20
2023-05-21T23:51:24.898Z,15.20
2023-05-21T23:53:51.931Z,15.20
2023-05-21T23:56:19.022Z,15.20
2023-05-21T23:58:46.019Z,15.20
